sensor_id;sensor_type;location;lat;lon;timestamp;temperature;humidity
33271;DHT22;53180;51.344;6.152;2022-10-23T00:01:43;13.30;89.00
33271;DHT22;53180;51.344;6.152;2022-10-23T00:04:13;13.30;88.90
33271;DHT22;53180;51.344;6.152;2022-10-23T00:06:43;13.20;89.10
33271;DHT22;53180;51.344;6.152;2022-10-23T00:09:15;13.20;89.00
33271;DHT22;53180;51.344;6.152;2022-10-23T00:11:45;13.20;89.20
33271;DHT22;53180;51.344;6.152;2022-10-23T00:14:17;13.20;89.10
33271;DHT22;53180;51.344;6.152;2022-10-23T00:16:46;13.20;89.10
33271;DHT22;53180;51.344;6.152;2022-10-23T00:19:14;13.20;89.20
33271;DHT22;53180;51.344;6.152;2022-10-23T00:21:43;13.20;89.30
33271;DHT22;53180;51.344;6.152;2022-10-23T00:24:11;13.20;89.30
33271;DHT22;53180;51.344;6.152;2022-10-23T00:26:41;13.20;89.30
33271;DHT22;53180;51.344;6.152;2022-10-23T00:29:10;13.20;89.40
33271;DHT22;53180;51.344;6.152;2022-10-23T00:31:38;13.10;89.40
33271;DHT22;53180;51.344;6.152;2022-10-23T00:34:07;13.10;89.60
33271;DHT22;53180;51.344;6.152;2022-10-23T00:36:37;13.20;89.60
33271;DHT22;53180;51.344;6.152;2022-10-23T00:39:06;13.10;89.60
33271;DHT22;53180;51.344;6.152;2022-10-23T00:41:34;13.10;89.60
33271;DHT22;53180;51.344;6.152;2022-10-23T00:44:07;13.10;89.60
33271;DHT22;53180;51.344;6.152;2022-10-23T00:46:38;13.10;89.60
33271;DHT22;53180;51.344;6.152;2022-10-23T00:49:07;13.10;89.60
33271;DHT22;53180;51.344;6.152;2022-10-23T00:51:41;13.10;89.60
33271;DHT22;53180;51.344;6.152;2022-10-23T00:54:12;13.10;89.60
33271;DHT22;53180;51.344;6.152;2022-10-23T00:56:59;13.10;89.70
33271;DHT22;53180;51.344;6.152;2022-10-23T00:59:32;13.00;89.70
33271;DHT22;53180;51.344;6.152;2022-10-23T01:02:00;13.00;89.70
33271;DHT22;53180;51.344;6.152;2022-10-23T01:04:29;13.00;89.80
33271;DHT22;53180;51.344;6.152;2022-10-23T01:07:03;13.00;89.90
33271;DHT22;53180;51.344;6.152;2022-10-23T01:09:38;13.00;89.90
33271;DHT22;53180;51.344;6.152;2022-10-23T01:12:14;13.00;89.90
33271;DHT22;53180;51.344;6.152;2022-10-23T01:14:55;13.00;90.00
33271;DHT22;53180;51.344;6.152;2022-10-23T01:17:33;13.00;90.00
33271;DHT22;53180;51.344;6.152;2022-10-23T01:20:18;13.00;90.00
33271;DHT22;53180;51.344;6.152;2022-10-23T01:23:10;13.00;90.00
33271;DHT22;53180;51.344;6.152;2022-10-23T01:25:56;13.00;90.00
33271;DHT22;53180;51.344;6.152;2022-10-23T01:28:31;13.00;90.10
33271;DHT22;53180;51.344;6.152;2022-10-23T01:31:05;13.00;90.20
33271;DHT22;53180;51.344;6.152;2022-10-23T01:33:39;13.00;90.30
33271;DHT22;53180;51.344;6.152;2022-10-23T01:36:12;12.90;90.30
33271;DHT22;53180;51.344;6.152;2022-10-23T01:38:45;13.00;90.30
33271;DHT22;53180;51.344;6.152;2022-10-23T01:41:23;13.00;90.30
33271;DHT22;53180;51.344;6.152;2022-10-23T01:44:02;12.90;90.30
33271;DHT22;53180;51.344;6.152;2022-10-23T01:46:33;12.90;90.40
33271;DHT22;53180;51.344;6.152;2022-10-23T01:49:05;12.90;90.40
33271;DHT22;53180;51.344;6.152;2022-10-23T01:51:37;12.90;90.30
33271;DHT22;53180;51.344;6.152;2022-10-23T01:54:08;12.90;90.30
33271;DHT22;53180;51.344;6.152;2022-10-23T01:56:40;12.90;90.30
33271;DHT22;53180;51.344;6.152;2022-10-23T01:59:15;12.90;90.30
33271;DHT22;53180;51.344;6.152;2022-10-23T02:01:47;12.80;90.40
33271;DHT22;53180;51.344;6.152;2022-10-23T02:04:26;12.90;90.30
33271;DHT22;53180;51.344;6.152;2022-10-23T02:06:56;12.80;90.50
33271;DHT22;53180;51.344;6.152;2022-10-23T02:09:25;12.80;90.50
33271;DHT22;53180;51.344;6.152;2022-10-23T02:11:58;12.90;90.60
33271;DHT22;53180;51.344;6.152;2022-10-23T02:14:39;12.90;90.50
33271;DHT22;53180;51.344;6.152;2022-10-23T02:17:15;12.80;90.50
33271;DHT22;53180;51.344;6.152;2022-10-23T02:19:56;12.80;90.60
33271;DHT22;53180;51.344;6.152;2022-10-23T02:22:30;12.80;90.50
33271;DHT22;53180;51.344;6.152;2022-10-23T02:25:08;12.90;90.60
33271;DHT22;53180;51.344;6.152;2022-10-23T02:27:41;12.80;90.60
33271;DHT22;53180;51.344;6.152;2022-10-23T02:30:16;12.80;90.50
33271;DHT22;53180;51.344;6.152;2022-10-23T02:32:46;12.90;90.50
33271;DHT22;53180;51.344;6.152;2022-10-23T02:35:19;12.80;90.50
33271;DHT22;53180;51.344;6.152;2022-10-23T02:37:52;12.80;90.50
33271;DHT22;53180;51.344;6.152;2022-10-23T02:40:21;12.80;90.60
33271;DHT22;53180;51.344;6.152;2022-10-23T02:42:53;12.80;90.60
33271;DHT22;53180;51.344;6.152;2022-10-23T02:45:30;12.90;90.60
33271;DHT22;53180;51.344;6.152;2022-10-23T02:48:05;12.90;90.80
33271;DHT22;53180;51.344;6.152;2022-10-23T02:50:41;12.90;90.70
33271;DHT22;53180;51.344;6.152;2022-10-23T02:53:18;12.80;90.70
33271;DHT22;53180;51.344;6.152;2022-10-23T02:55:57;12.80;90.70
33271;DHT22;53180;51.344;6.152;2022-10-23T02:58:35;12.80;90.80
33271;DHT22;53180;51.344;6.152;2022-10-23T03:01:12;12.80;90.70
33271;DHT22;53180;51.344;6.152;2022-10-23T03:03:46;12.80;90.80
33271;DHT22;53180;51.344;6.152;2022-10-23T03:06:17;12.80;90.80
33271;DHT22;53180;51.344;6.152;2022-10-23T03:08:51;12.80;90.90
33271;DHT22;53180;51.344;6.152;2022-10-23T03:11:20;12.80;91.00
33271;DHT22;53180;51.344;6.152;2022-10-23T03:13:48;12.80;90.90
33271;DHT22;53180;51.344;6.152;2022-10-23T03:16:18;12.80;90.90
33271;DHT22;53180;51.344;6.152;2022-10-23T03:18:47;12.90;91.00
33271;DHT22;53180;51.344;6.152;2022-10-23T03:21:15;12.90;91.00
33271;DHT22;53180;51.344;6.152;2022-10-23T03:23:43;12.80;91.00
33271;DHT22;53180;51.344;6.152;2022-10-23T03:26:12;12.90;91.00
33271;DHT22;53180;51.344;6.152;2022-10-23T03:28:40;12.90;91.00
33271;DHT22;53180;51.344;6.152;2022-10-23T03:31:08;12.90;91.00
33271;DHT22;53180;51.344;6.152;2022-10-23T03:33:38;12.90;91.10
33271;DHT22;53180;51.344;6.152;2022-10-23T03:36:07;12.90;91.10
33271;DHT22;53180;51.344;6.152;2022-10-23T03:38:36;12.90;91.10
33271;DHT22;53180;51.344;6.152;2022-10-23T03:41:04;12.90;91.10
33271;DHT22;53180;51.344;6.152;2022-10-23T03:43:33;12.90;91.10
33271;DHT22;53180;51.344;6.152;2022-10-23T03:46:01;12.90;91.10
33271;DHT22;53180;51.344;6.152;2022-10-23T03:48:34;13.00;91.00
33271;DHT22;53180;51.344;6.152;2022-10-23T03:51:05;12.90;91.10
33271;DHT22;53180;51.344;6.152;2022-10-23T03:53:34;13.00;91.20
33271;DHT22;53180;51.344;6.152;2022-10-23T03:56:03;13.00;91.20
33271;DHT22;53180;51.344;6.152;2022-10-23T03:58:32;13.00;91.20
33271;DHT22;53180;51.344;6.152;2022-10-23T04:01:00;13.00;91.20
33271;DHT22;53180;51.344;6.152;2022-10-23T04:03:28;13.00;91.20
33271;DHT22;53180;51.344;6.152;2022-10-23T04:05:57;13.00;91.30
33271;DHT22;53180;51.344;6.152;2022-10-23T04:08:26;13.00;91.30
33271;DHT22;53180;51.344;6.152;2022-10-23T04:10:55;13.00;91.30
33271;DHT22;53180;51.344;6.152;2022-10-23T04:13:23;13.00;91.30
33271;DHT22;53180;51.344;6.152;2022-10-23T04:15:52;13.00;91.30
33271;DHT22;53180;51.344;6.152;2022-10-23T04:18:20;13.00;91.40
33271;DHT22;53180;51.344;6.152;2022-10-23T04:20:50;13.00;91.30
33271;DHT22;53180;51.344;6.152;2022-10-23T04:23:18;13.10;91.40
33271;DHT22;53180;51.344;6.152;2022-10-23T04:25:48;13.10;91.40
33271;DHT22;53180;51.344;6.152;2022-10-23T04:28:16;13.00;91.40
33271;DHT22;53180;51.344;6.152;2022-10-23T04:30:45;13.10;91.40
33271;DHT22;53180;51.344;6.152;2022-10-23T04:33:13;13.10;91.40
33271;DHT22;53180;51.344;6.152;2022-10-23T04:35:42;13.10;91.30
33271;DHT22;53180;51.344;6.152;2022-10-23T04:38:10;13.10;91.40
33271;DHT22;53180;51.344;6.152;2022-10-23T04:40:38;13.10;91.40
33271;DHT22;53180;51.344;6.152;2022-10-23T04:43:08;13.10;91.40
33271;DHT22;53180;51.344;6.152;2022-10-23T04:45:36;13.10;91.40
33271;DHT22;53180;51.344;6.152;2022-10-23T04:48:05;13.10;91.40
33271;DHT22;53180;51.344;6.152;2022-10-23T04:50:33;13.10;91.40
33271;DHT22;53180;51.344;6.152;2022-10-23T04:53:01;13.10;91.40
33271;DHT22;53180;51.344;6.152;2022-10-23T04:55:30;13.10;91.40
33271;DHT22;53180;51.344;6.152;2022-10-23T04:57:58;13.10;91.40
33271;DHT22;53180;51.344;6.152;2022-10-23T05:00:27;13.00;91.40
33271;DHT22;53180;51.344;6.152;2022-10-23T05:02:56;13.10;91.40
33271;DHT22;53180;51.344;6.152;2022-10-23T05:05:24;13.10;91.50
33271;DHT22;53180;51.344;6.152;2022-10-23T05:07:52;13.10;91.40
33271;DHT22;53180;51.344;6.152;2022-10-23T05:10:21;13.10;91.50
33271;DHT22;53180;51.344;6.152;2022-10-23T05:12:49;13.10;91.50
33271;DHT22;53180;51.344;6.152;2022-10-23T05:15:17;13.10;91.50
33271;DHT22;53180;51.344;6.152;2022-10-23T05:17:49;13.10;91.50
33271;DHT22;53180;51.344;6.152;2022-10-23T05:20:22;13.10;91.50
33271;DHT22;53180;51.344;6.152;2022-10-23T05:22:54;13.10;91.50
33271;DHT22;53180;51.344;6.152;2022-10-23T05:25:25;13.10;91.50
33271;DHT22;53180;51.344;6.152;2022-10-23T05:27:53;13.10;91.50
33271;DHT22;53180;51.344;6.152;2022-10-23T05:30:21;13.10;91.50
33271;DHT22;53180;51.344;6.152;2022-10-23T05:32:51;13.10;91.50
33271;DHT22;53180;51.344;6.152;2022-10-23T05:35:21;13.20;91.50
33271;DHT22;53180;51.344;6.152;2022-10-23T05:37:51;13.20;91.40
33271;DHT22;53180;51.344;6.152;2022-10-23T05:40:21;13.10;91.40
33271;DHT22;53180;51.344;6.152;2022-10-23T05:42:49;13.10;91.30
33271;DHT22;53180;51.344;6.152;2022-10-23T05:45:17;13.20;91.30
33271;DHT22;53180;51.344;6.152;2022-10-23T05:47:46;13.20;91.40
33271;DHT22;53180;51.344;6.152;2022-10-23T05:50:16;13.20;91.40
33271;DHT22;53180;51.344;6.152;2022-10-23T05:52:46;13.20;91.30
33271;DHT22;53180;51.344;6.152;2022-10-23T05:55:15;13.20;91.30
33271;DHT22;53180;51.344;6.152;2022-10-23T05:57:43;13.20;91.30
33271;DHT22;53180;51.344;6.152;2022-10-23T06:00:12;13.20;91.30
33271;DHT22;53180;51.344;6.152;2022-10-23T06:02:41;13.20;91.20
33271;DHT22;53180;51.344;6.152;2022-10-23T06:05:09;13.20;91.20
33271;DHT22;53180;51.344;6.152;2022-10-23T06:07:39;13.20;91.10
33271;DHT22;53180;51.344;6.152;2022-10-23T06:10:08;13.20;91.10
33271;DHT22;53180;51.344;6.152;2022-10-23T06:12:36;13.20;91.10
33271;DHT22;53180;51.344;6.152;2022-10-23T06:15:06;13.20;91.10
33271;DHT22;53180;51.344;6.152;2022-10-23T06:17:37;13.20;91.10
33271;DHT22;53180;51.344;6.152;2022-10-23T06:20:06;13.20;91.10
33271;DHT22;53180;51.344;6.152;2022-10-23T06:22:35;13.10;91.10
33271;DHT22;53180;51.344;6.152;2022-10-23T06:25:06;13.20;91.10
33271;DHT22;53180;51.344;6.152;2022-10-23T06:27:35;13.10;91.10
33271;DHT22;53180;51.344;6.152;2022-10-23T06:30:04;13.10;91.10
33271;DHT22;53180;51.344;6.152;2022-10-23T06:32:33;13.20;91.20
33271;DHT22;53180;51.344;6.152;2022-10-23T06:35:02;13.20;91.10
33271;DHT22;53180;51.344;6.152;2022-10-23T06:37:32;13.20;91.10
33271;DHT22;53180;51.344;6.152;2022-10-23T06:40:01;13.20;91.10
33271;DHT22;53180;51.344;6.152;2022-10-23T06:42:30;13.20;91.20
33271;DHT22;53180;51.344;6.152;2022-10-23T06:44:59;13.20;91.20
33271;DHT22;53180;51.344;6.152;2022-10-23T06:47:32;13.20;91.20
33271;DHT22;53180;51.344;6.152;2022-10-23T06:50:01;13.20;91.10
33271;DHT22;53180;51.344;6.152;2022-10-23T06:52:29;13.20;91.10
33271;DHT22;53180;51.344;6.152;2022-10-23T06:55:13;13.20;91.10
33271;DHT22;53180;51.344;6.152;2022-10-23T06:57:42;13.20;91.10
33271;DHT22;53180;51.344;6.152;2022-10-23T07:00:12;13.30;91.00
33271;DHT22;53180;51.344;6.152;2022-10-23T07:02:40;13.30;91.00
33271;DHT22;53180;51.344;6.152;2022-10-23T07:05:09;13.30;91.00
33271;DHT22;53180;51.344;6.152;2022-10-23T07:07:39;13.30;91.00
33271;DHT22;53180;51.344;6.152;2022-10-23T07:10:08;13.30;91.00
33271;DHT22;53180;51.344;6.152;2022-10-23T07:12:36;13.30;90.90
33271;DHT22;53180;51.344;6.152;2022-10-23T07:15:07;13.40;90.80
33271;DHT22;53180;51.344;6.152;2022-10-23T07:17:36;13.40;90.80
33271;DHT22;53180;51.344;6.152;2022-10-23T07:20:05;13.40;90.80
33271;DHT22;53180;51.344;6.152;2022-10-23T07:22:33;13.40;90.70
33271;DHT22;53180;51.344;6.152;2022-10-23T07:25:02;13.40;90.70
33271;DHT22;53180;51.344;6.152;2022-10-23T07:27:30;13.50;90.70
33271;DHT22;53180;51.344;6.152;2022-10-23T07:29:58;13.50;90.60
33271;DHT22;53180;51.344;6.152;2022-10-23T07:32:28;13.60;90.50
33271;DHT22;53180;51.344;6.152;2022-10-23T07:34:56;13.60;90.40
33271;DHT22;53180;51.344;6.152;2022-10-23T07:37:25;13.70;90.40
33271;DHT22;53180;51.344;6.152;2022-10-23T07:39:53;13.70;90.30
33271;DHT22;53180;51.344;6.152;2022-10-23T07:42:21;13.80;90.30
33271;DHT22;53180;51.344;6.152;2022-10-23T07:44:49;13.80;90.20
33271;DHT22;53180;51.344;6.152;2022-10-23T07:47:18;13.80;90.10
33271;DHT22;53180;51.344;6.152;2022-10-23T07:49:48;13.80;90.00
33271;DHT22;53180;51.344;6.152;2022-10-23T07:52:16;13.90;90.00
33271;DHT22;53180;51.344;6.152;2022-10-23T07:54:44;13.90;89.90
33271;DHT22;53180;51.344;6.152;2022-10-23T07:57:12;14.00;89.80
33271;DHT22;53180;51.344;6.152;2022-10-23T07:59:41;14.10;89.80
33271;DHT22;53180;51.344;6.152;2022-10-23T08:02:10;14.20;89.60
33271;DHT22;53180;51.344;6.152;2022-10-23T08:04:39;14.20;89.50
33271;DHT22;53180;51.344;6.152;2022-10-23T08:07:09;14.30;89.50
33271;DHT22;53180;51.344;6.152;2022-10-23T08:09:37;14.40;89.30
33271;DHT22;53180;51.344;6.152;2022-10-23T08:12:06;14.50;89.20
33271;DHT22;53180;51.344;6.152;2022-10-23T08:14:34;14.50;88.90
33271;DHT22;53180;51.344;6.152;2022-10-23T08:17:02;14.60;88.90
33271;DHT22;53180;51.344;6.152;2022-10-23T08:19:35;14.60;88.80
33271;DHT22;53180;51.344;6.152;2022-10-23T08:22:03;14.70;88.60
33271;DHT22;53180;51.344;6.152;2022-10-23T08:24:33;14.70;88.40
33271;DHT22;53180;51.344;6.152;2022-10-23T08:27:01;14.70;88.40
33271;DHT22;53180;51.344;6.152;2022-10-23T08:29:30;14.80;88.50
33271;DHT22;53180;51.344;6.152;2022-10-23T08:31:58;14.80;88.20
33271;DHT22;53180;51.344;6.152;2022-10-23T08:34:26;14.80;88.00
33271;DHT22;53180;51.344;6.152;2022-10-23T08:36:55;14.90;88.10
33271;DHT22;53180;51.344;6.152;2022-10-23T08:39:23;14.90;88.10
33271;DHT22;53180;51.344;6.152;2022-10-23T08:41:52;14.90;87.90
33271;DHT22;53180;51.344;6.152;2022-10-23T08:44:25;15.00;88.10
33271;DHT22;53180;51.344;6.152;2022-10-23T08:47:02;15.00;88.00
33271;DHT22;53180;51.344;6.152;2022-10-23T08:49:38;15.10;87.40
33271;DHT22;53180;51.344;6.152;2022-10-23T08:52:14;15.10;87.50
33271;DHT22;53180;51.344;6.152;2022-10-23T08:55:00;15.20;87.60
33271;DHT22;53180;51.344;6.152;2022-10-23T08:57:37;15.20;87.10
33271;DHT22;53180;51.344;6.152;2022-10-23T09:00:13;15.30;86.90
33271;DHT22;53180;51.344;6.152;2022-10-23T09:02:44;15.30;86.70
33271;DHT22;53180;51.344;6.152;2022-10-23T09:05:17;15.30;86.80
33271;DHT22;53180;51.344;6.152;2022-10-23T09:08:06;15.40;86.60
33271;DHT22;53180;51.344;6.152;2022-10-23T09:10:55;15.40;86.50
33271;DHT22;53180;51.344;6.152;2022-10-23T09:13:52;15.50;86.70
33271;DHT22;53180;51.344;6.152;2022-10-23T09:16:45;15.50;86.60
33271;DHT22;53180;51.344;6.152;2022-10-23T09:19:22;15.50;86.20
33271;DHT22;53180;51.344;6.152;2022-10-23T09:21:53;15.50;85.90
33271;DHT22;53180;51.344;6.152;2022-10-23T09:24:24;15.60;86.60
33271;DHT22;53180;51.344;6.152;2022-10-23T09:26:54;15.60;86.40
33271;DHT22;53180;51.344;6.152;2022-10-23T09:29:26;15.70;86.00
33271;DHT22;53180;51.344;6.152;2022-10-23T09:31:58;15.70;85.90
33271;DHT22;53180;51.344;6.152;2022-10-23T09:34:28;15.80;85.40
33271;DHT22;53180;51.344;6.152;2022-10-23T09:36:58;15.80;85.50
33271;DHT22;53180;51.344;6.152;2022-10-23T09:39:29;15.80;85.60
33271;DHT22;53180;51.344;6.152;2022-10-23T09:41:59;15.80;85.30
33271;DHT22;53180;51.344;6.152;2022-10-23T09:44:31;15.80;85.10
33271;DHT22;53180;51.344;6.152;2022-10-23T09:47:08;15.90;85.40
33271;DHT22;53180;51.344;6.152;2022-10-23T09:49:45;15.90;85.00
33271;DHT22;53180;51.344;6.152;2022-10-23T09:52:27;15.90;85.10
33271;DHT22;53180;51.344;6.152;2022-10-23T09:54:59;15.90;85.30
33271;DHT22;53180;51.344;6.152;2022-10-23T09:57:32;15.90;85.10
33271;DHT22;53180;51.344;6.152;2022-10-23T10:00:14;15.90;85.10
33271;DHT22;53180;51.344;6.152;2022-10-23T10:02:55;15.90;84.90
33271;DHT22;53180;51.344;6.152;2022-10-23T10:05:27;15.90;84.90
33271;DHT22;53180;51.344;6.152;2022-10-23T10:07:59;16.00;84.70
33271;DHT22;53180;51.344;6.152;2022-10-23T10:10:35;16.00;85.00
33271;DHT22;53180;51.344;6.152;2022-10-23T10:13:16;16.10;84.60
33271;DHT22;53180;51.344;6.152;2022-10-23T10:16:02;16.20;84.50
33271;DHT22;53180;51.344;6.152;2022-10-23T10:18:38;16.20;84.80
33271;DHT22;53180;51.344;6.152;2022-10-23T10:21:13;16.30;84.90
33271;DHT22;53180;51.344;6.152;2022-10-23T10:23:47;16.40;84.10
33271;DHT22;53180;51.344;6.152;2022-10-23T10:26:28;16.40;84.10
33271;DHT22;53180;51.344;6.152;2022-10-23T10:29:09;16.40;83.70
33271;DHT22;53180;51.344;6.152;2022-10-23T10:31:56;16.40;84.00
33271;DHT22;53180;51.344;6.152;2022-10-23T10:34:38;16.50;84.00
33271;DHT22;53180;51.344;6.152;2022-10-23T10:37:18;16.50;84.10
33271;DHT22;53180;51.344;6.152;2022-10-23T10:39:57;16.50;84.10
33271;DHT22;53180;51.344;6.152;2022-10-23T10:42:42;16.50;84.30
33271;DHT22;53180;51.344;6.152;2022-10-23T10:45:18;16.50;84.30
33271;DHT22;53180;51.344;6.152;2022-10-23T10:48:07;16.50;84.00
33271;DHT22;53180;51.344;6.152;2022-10-23T10:50:58;16.50;83.90
33271;DHT22;53180;51.344;6.152;2022-10-23T10:53:42;16.50;83.90
33271;DHT22;53180;51.344;6.152;2022-10-23T10:56:18;16.60;83.90
33271;DHT22;53180;51.344;6.152;2022-10-23T10:58:52;16.60;83.80
33271;DHT22;53180;51.344;6.152;2022-10-23T11:01:27;16.70;83.80
33271;DHT22;53180;51.344;6.152;2022-10-23T11:04:04;16.70;83.60
33271;DHT22;53180;51.344;6.152;2022-10-23T11:06:37;16.80;83.00
33271;DHT22;53180;51.344;6.152;2022-10-23T11:09:15;16.90;83.10
33271;DHT22;53180;51.344;6.152;2022-10-23T11:11:47;16.90;83.00
33271;DHT22;53180;51.344;6.152;2022-10-23T11:14:17;17.00;83.10
33271;DHT22;53180;51.344;6.152;2022-10-23T11:16:49;17.00;82.70
33271;DHT22;53180;51.344;6.152;2022-10-23T11:19:23;17.00;82.50
33271;DHT22;53180;51.344;6.152;2022-10-23T11:21:57;17.00;82.70
33271;DHT22;53180;51.344;6.152;2022-10-23T11:28:02;17.00;82.70
33271;DHT22;53180;51.344;6.152;2022-10-23T11:31:00;17.10;83.00
33271;DHT22;53180;51.344;6.152;2022-10-23T11:37:25;17.20;82.40
33271;DHT22;53180;51.344;6.152;2022-10-23T11:40:00;17.30;82.60
33271;DHT22;53180;51.344;6.152;2022-10-23T11:42:44;17.30;81.90
33271;DHT22;53180;51.344;6.152;2022-10-23T11:45:32;17.50;81.40
33271;DHT22;53180;51.344;6.152;2022-10-23T11:48:02;17.70;81.10
33271;DHT22;53180;51.344;6.152;2022-10-23T11:50:36;17.80;81.20
33271;DHT22;53180;51.344;6.152;2022-10-23T11:53:37;17.90;80.50
33271;DHT22;53180;51.344;6.152;2022-10-23T11:56:24;18.00;80.20
33271;DHT22;53180;51.344;6.152;2022-10-23T11:58:57;18.10;79.70
33271;DHT22;53180;51.344;6.152;2022-10-23T12:01:35;18.10;79.60
33271;DHT22;53180;51.344;6.152;2022-10-23T12:04:18;18.20;79.80
33271;DHT22;53180;51.344;6.152;2022-10-23T12:06:51;18.20;80.00
33271;DHT22;53180;51.344;6.152;2022-10-23T12:09:28;18.30;79.40
33271;DHT22;53180;51.344;6.152;2022-10-23T12:12:13;18.40;79.10
33271;DHT22;53180;51.344;6.152;2022-10-23T12:14:46;18.40;79.00
33271;DHT22;53180;51.344;6.152;2022-10-23T12:17:29;18.40;78.20
33271;DHT22;53180;51.344;6.152;2022-10-23T12:20:20;18.40;78.50
33271;DHT22;53180;51.344;6.152;2022-10-23T12:23:11;18.30;79.10
33271;DHT22;53180;51.344;6.152;2022-10-23T12:25:57;18.30;78.50
33271;DHT22;53180;51.344;6.152;2022-10-23T12:28:38;18.40;78.90
33271;DHT22;53180;51.344;6.152;2022-10-23T12:31:22;18.40;78.60
33271;DHT22;53180;51.344;6.152;2022-10-23T12:34:04;18.50;79.10
33271;DHT22;53180;51.344;6.152;2022-10-23T12:36:48;18.50;79.10
33271;DHT22;53180;51.344;6.152;2022-10-23T12:39:26;18.60;78.50
33271;DHT22;53180;51.344;6.152;2022-10-23T12:41:58;18.70;78.70
33271;DHT22;53180;51.344;6.152;2022-10-23T12:44:27;18.60;78.50
33271;DHT22;53180;51.344;6.152;2022-10-23T12:46:56;18.70;78.90
33271;DHT22;53180;51.344;6.152;2022-10-23T12:49:29;18.70;78.60
33271;DHT22;53180;51.344;6.152;2022-10-23T12:52:02;18.70;78.60
33271;DHT22;53180;51.344;6.152;2022-10-23T12:54:36;18.70;78.50
33271;DHT22;53180;51.344;6.152;2022-10-23T12:57:18;18.80;78.30
33271;DHT22;53180;51.344;6.152;2022-10-23T12:59:49;18.80;78.60
33271;DHT22;53180;51.344;6.152;2022-10-23T13:02:22;18.80;78.00
33271;DHT22;53180;51.344;6.152;2022-10-23T13:04:53;18.80;78.10
33271;DHT22;53180;51.344;6.152;2022-10-23T13:07:24;18.80;78.10
33271;DHT22;53180;51.344;6.152;2022-10-23T13:09:54;18.80;78.40
33271;DHT22;53180;51.344;6.152;2022-10-23T13:12:28;18.70;77.50
33271;DHT22;53180;51.344;6.152;2022-10-23T13:14:59;18.80;77.60
33271;DHT22;53180;51.344;6.152;2022-10-23T13:17:35;18.80;78.00
33271;DHT22;53180;51.344;6.152;2022-10-23T13:20:09;18.80;78.00
33271;DHT22;53180;51.344;6.152;2022-10-23T13:22:43;18.70;77.80
33271;DHT22;53180;51.344;6.152;2022-10-23T13:25:21;18.70;78.10
33271;DHT22;53180;51.344;6.152;2022-10-23T13:28:10;18.70;78.10
33271;DHT22;53180;51.344;6.152;2022-10-23T13:30:42;18.70;77.90
33271;DHT22;53180;51.344;6.152;2022-10-23T13:33:21;18.80;77.80
33271;DHT22;53180;51.344;6.152;2022-10-23T13:35:57;18.80;78.40
33271;DHT22;53180;51.344;6.152;2022-10-23T13:38:28;18.80;78.80
33271;DHT22;53180;51.344;6.152;2022-10-23T13:40:58;18.80;78.20
33271;DHT22;53180;51.344;6.152;2022-10-23T13:43:30;18.80;78.10
33271;DHT22;53180;51.344;6.152;2022-10-23T13:45:59;18.80;77.60
33271;DHT22;53180;51.344;6.152;2022-10-23T13:48:29;18.80;77.80
33271;DHT22;53180;51.344;6.152;2022-10-23T13:51:02;18.80;77.50
33271;DHT22;53180;51.344;6.152;2022-10-23T13:53:37;18.80;77.70
33271;DHT22;53180;51.344;6.152;2022-10-23T13:56:07;18.80;77.50
33271;DHT22;53180;51.344;6.152;2022-10-23T13:58:38;18.80;77.20
33271;DHT22;53180;51.344;6.152;2022-10-23T14:01:11;18.80;77.40
33271;DHT22;53180;51.344;6.152;2022-10-23T14:03:48;18.80;77.60
33271;DHT22;53180;51.344;6.152;2022-10-23T14:06:16;18.80;77.80
33271;DHT22;53180;51.344;6.152;2022-10-23T14:08:45;18.70;77.30
33271;DHT22;53180;51.344;6.152;2022-10-23T14:11:14;18.80;77.80
33271;DHT22;53180;51.344;6.152;2022-10-23T14:13:45;18.80;77.60
33271;DHT22;53180;51.344;6.152;2022-10-23T14:16:15;18.70;77.80
33271;DHT22;53180;51.344;6.152;2022-10-23T14:18:44;18.70;78.00
33271;DHT22;53180;51.344;6.152;2022-10-23T14:21:14;18.70;78.50
33271;DHT22;53180;51.344;6.152;2022-10-23T14:23:43;18.70;78.50
33271;DHT22;53180;51.344;6.152;2022-10-23T14:26:14;18.70;78.80
33271;DHT22;53180;51.344;6.152;2022-10-23T14:28:45;18.70;78.60
33271;DHT22;53180;51.344;6.152;2022-10-23T14:31:14;18.70;78.70
33271;DHT22;53180;51.344;6.152;2022-10-23T14:33:44;18.70;78.50
33271;DHT22;53180;51.344;6.152;2022-10-23T14:36:13;18.60;78.70
33271;DHT22;53180;51.344;6.152;2022-10-23T14:38:41;18.60;78.50
33271;DHT22;53180;51.344;6.152;2022-10-23T14:41:10;18.50;78.80
33271;DHT22;53180;51.344;6.152;2022-10-23T14:43:40;18.50;79.10
33271;DHT22;53180;51.344;6.152;2022-10-23T14:46:13;18.50;79.10
33271;DHT22;53180;51.344;6.152;2022-10-23T14:48:42;18.40;79.00
33271;DHT22;53180;51.344;6.152;2022-10-23T14:51:17;18.50;78.90
33271;DHT22;53180;51.344;6.152;2022-10-23T14:53:47;18.40;78.90
33271;DHT22;53180;51.344;6.152;2022-10-23T14:56:17;18.40;79.00
33271;DHT22;53180;51.344;6.152;2022-10-23T14:58:45;18.40;79.10
33271;DHT22;53180;51.344;6.152;2022-10-23T15:01:15;18.40;79.40
33271;DHT22;53180;51.344;6.152;2022-10-23T15:03:44;18.40;79.20
33271;DHT22;53180;51.344;6.152;2022-10-23T15:06:12;18.30;79.40
33271;DHT22;53180;51.344;6.152;2022-10-23T15:08:44;18.30;79.30
33271;DHT22;53180;51.344;6.152;2022-10-23T15:11:12;18.30;79.50
33271;DHT22;53180;51.344;6.152;2022-10-23T15:13:40;18.30;79.60
33271;DHT22;53180;51.344;6.152;2022-10-23T15:16:10;18.30;79.40
33271;DHT22;53180;51.344;6.152;2022-10-23T15:18:40;18.30;79.60
33271;DHT22;53180;51.344;6.152;2022-10-23T15:21:08;18.30;79.80
33271;DHT22;53180;51.344;6.152;2022-10-23T15:23:38;18.30;79.90
33271;DHT22;53180;51.344;6.152;2022-10-23T15:26:10;18.30;79.80
33271;DHT22;53180;51.344;6.152;2022-10-23T15:28:39;18.20;79.80
33271;DHT22;53180;51.344;6.152;2022-10-23T15:34:13;18.20;80.30
33271;DHT22;53180;51.344;6.152;2022-10-23T15:36:44;18.20;80.40
33271;DHT22;53180;51.344;6.152;2022-10-23T15:39:15;18.20;80.40
33271;DHT22;53180;51.344;6.152;2022-10-23T15:41:44;18.20;80.60
33271;DHT22;53180;51.344;6.152;2022-10-23T15:44:14;18.20;80.60
33271;DHT22;53180;51.344;6.152;2022-10-23T15:46:44;18.20;80.50
33271;DHT22;53180;51.344;6.152;2022-10-23T15:49:15;18.20;80.60
33271;DHT22;53180;51.344;6.152;2022-10-23T15:51:44;18.20;80.70
33271;DHT22;53180;51.344;6.152;2022-10-23T15:54:14;18.20;80.40
33271;DHT22;53180;51.344;6.152;2022-10-23T15:56:47;18.30;80.50
33271;DHT22;53180;51.344;6.152;2022-10-23T15:59:17;18.20;80.70
33271;DHT22;53180;51.344;6.152;2022-10-23T16:01:47;18.20;80.70
33271;DHT22;53180;51.344;6.152;2022-10-23T16:04:17;18.20;80.70
33271;DHT22;53180;51.344;6.152;2022-10-23T16:06:46;18.30;80.80
33271;DHT22;53180;51.344;6.152;2022-10-23T16:09:14;18.20;80.90
33271;DHT22;53180;51.344;6.152;2022-10-23T16:11:43;18.20;81.10
33271;DHT22;53180;51.344;6.152;2022-10-23T16:14:13;18.20;81.10